Time;durP1;ratioP1;P1;durP2;ratioP2;P2;SDS_P1;SDS_P2;PMS_P1;PMS_P2;Temp;Humidity;BMP_temperature;BMP_pressure;BME280_temperature;BME280_humidity;BME280_pressure;Samples;Min_cycle;Max_cycle;Signal;HPM_P1;HPM_P2
2023/01/15 00:02:16;;;;;;;5.88;3.70;;;4.40;99.90;;;;;;5043314;28;20045;-65
2023/01/15 00:04:43;;;;;;;7.60;3.38;;;4.40;99.90;;;;;;5033022;28;20044;-65
2023/01/15 00:07:11;;;;;;;6.15;3.90;;;4.40;99.90;;;;;;5044170;28;20501;-65
2023/01/15 00:09:38;;;;;;;6.07;3.53;;;4.40;99.90;;;;;;5038490;28;20456;-65
2023/01/15 00:12:06;;;;;;;4.95;3.60;;;4.50;99.90;;;;;;5041926;28;20090;-65
2023/01/15 00:14:33;;;;;;;6.00;3.78;;;4.50;99.90;;;;;;5066381;28;20126;-66
2023/01/15 00:17:00;;;;;;;5.45;3.80;;;4.50;99.90;;;;;;5039847;28;20428;-66
2023/01/15 00:19:29;;;;;;;5.70;3.63;;;4.50;99.90;;;;;;5038017;28;20107;-68
2023/01/15 00:21:57;;;;;;;6.80;4.68;;;4.40;99.90;;;;;;5033868;28;20330;-66
2023/01/15 00:29:52;;;;;;;6.47;3.75;;;4.40;99.90;;;;;;5058834;28;20057;-66
2023/01/15 00:32:19;;;;;;;5.60;3.55;;;4.50;99.90;;;;;;5039678;28;20101;-65
2023/01/15 00:34:47;;;;;;;3.03;2.72;;;4.50;99.90;;;;;;5039859;28;20076;-66
2023/01/15 00:37:15;;;;;;;6.53;3.40;;;4.50;99.90;;;;;;5039096;28;20513;-66
2023/01/15 00:39:43;;;;;;;6.88;3.90;;;4.50;99.90;;;;;;5047487;28;20510;-65
2023/01/15 00:42:11;;;;;;;8.07;3.67;;;4.50;99.90;;;;;;5043240;28;20063;-65
2023/01/15 00:44:39;;;;;;;5.18;3.40;;;4.50;99.90;;;;;;5045280;28;20076;-66
2023/01/15 00:47:08;;;;;;;4.22;3.05;;;4.50;99.90;;;;;;5061921;28;20053;-66
2023/01/15 00:49:36;;;;;;;5.68;3.08;;;4.50;99.90;;;;;;5046942;28;20068;-65
2023/01/15 00:52:05;;;;;;;6.55;3.25;;;4.50;99.90;;;;;;5039702;28;20052;-66
2023/01/15 00:54:33;;;;;;;6.45;3.00;;;4.60;99.90;;;;;;5030145;28;20099;-66
2023/01/15 00:57:00;;;;;;;5.32;3.35;;;4.60;99.90;;;;;;5033175;28;20103;-65
2023/01/15 00:59:27;;;;;;;3.25;2.47;;;4.60;99.90;;;;;;5034327;28;20081;-66
2023/01/15 01:01:55;;;;;;;4.80;3.00;;;4.60;99.90;;;;;;5030211;28;20489;-65
2023/01/15 01:04:22;;;;;;;5.55;2.88;;;4.60;99.90;;;;;;5046900;28;20053;-65
2023/01/15 01:06:49;;;;;;;4.47;2.95;;;4.60;99.90;;;;;;5045766;28;20151;-66
2023/01/15 01:09:18;;;;;;;4.45;2.75;;;4.60;99.90;;;;;;5046451;28;20492;-66
2023/01/15 01:11:45;;;;;;;5.03;2.67;;;4.60;99.90;;;;;;5029860;28;20053;-66
2023/01/15 01:14:13;;;;;;;4.13;2.80;;;4.60;99.90;;;;;;5044944;28;20551;-67
2023/01/15 01:16:42;;;;;;;4.18;2.97;;;4.60;99.90;;;;;;5043365;28;20127;-66
2023/01/15 01:19:13;;;;;;;6.90;3.13;;;4.60;99.90;;;;;;5044213;28;20248;-69
2023/01/15 01:21:42;;;;;;;6.43;3.20;;;4.70;99.90;;;;;;5029368;28;20514;-70
2023/01/15 01:24:11;;;;;;;7.53;2.97;;;4.70;99.90;;;;;;5044805;28;20045;-70
2023/01/15 01:26:42;;;;;;;6.13;3.10;;;4.70;99.90;;;;;;5035802;28;20048;-70
2023/01/15 01:29:12;;;;;;;6.57;2.80;;;4.70;99.90;;;;;;5039799;28;20448;-70
2023/01/15 01:31:40;;;;;;;5.45;2.63;;;4.70;99.90;;;;;;5068080;28;20415;-70
2023/01/15 01:34:09;;;;;;;4.38;3.25;;;4.70;99.90;;;;;;5021673;28;20500;-70
2023/01/15 01:36:39;;;;;;;8.48;2.92;;;4.70;99.90;;;;;;5031017;28;20056;-70
2023/01/15 01:39:10;;;;;;;4.80;2.70;;;4.70;99.90;;;;;;5038396;28;20466;-70
2023/01/15 01:41:37;;;;;;;6.35;2.25;;;4.70;99.90;;;;;;5070902;28;20500;-71
2023/01/15 01:44:28;;;;;;;4.53;1.98;;;4.70;99.90;;;;;;5043158;28;20077;-70
2023/01/15 01:46:55;;;;;;;4.63;2.05;;;4.70;99.90;;;;;;5028234;28;20057;-70
2023/01/15 01:49:23;;;;;;;3.72;2.40;;;4.60;99.90;;;;;;5044283;28;20049;-70
2023/01/15 01:51:57;;;;;;;4.50;2.75;;;4.60;99.90;;;;;;5028417;28;20048;-70
2023/01/15 01:54:27;;;;;;;5.22;2.28;;;4.60;99.90;;;;;;5034917;28;20055;-70
2023/01/15 01:56:54;;;;;;;7.00;3.03;;;4.60;99.90;;;;;;5061773;28;20048;-71
2023/01/15 01:59:25;;;;;;;3.65;2.00;;;4.60;99.90;;;;;;5033683;28;20144;-70
2023/01/15 02:01:54;;;;;;;4.50;2.70;;;4.60;99.90;;;;;;5033376;28;20052;-69
2023/01/15 02:04:23;;;;;;;4.25;2.10;;;4.60;99.90;;;;;;5041144;28;20048;-69
2023/01/15 02:06:52;;;;;;;5.60;2.17;;;4.50;99.90;;;;;;5032904;28;20155;-69
2023/01/15 02:09:19;;;;;;;4.63;2.40;;;4.50;99.90;;;;;;5052047;28;20041;-69
2023/01/15 02:11:47;;;;;;;8.30;2.70;;;4.50;99.90;;;;;;5041860;28;20406;-69
2023/01/15 02:14:21;;;;;;;3.60;2.28;;;4.50;99.90;;;;;;5047911;28;20048;-69
2023/01/15 02:17:16;;;;;;;4.28;2.20;;;4.50;99.90;;;;;;5032117;28;20509;-69
2023/01/15 02:19:52;;;;;;;4.50;2.22;;;4.50;99.90;;;;;;5048100;28;20110;-69
2023/01/15 02:22:29;;;;;;;5.88;2.88;;;4.50;99.90;;;;;;5044933;28;20453;-69
2023/01/15 02:25:08;;;;;;;7.05;1.90;;;4.50;99.90;;;;;;5048134;28;20048;-69
2023/01/15 02:27:43;;;;;;;4.72;2.28;;;4.50;99.90;;;;;;5072743;28;20056;-69
2023/01/15 02:30:20;;;;;;;2.75;2.50;;;4.40;99.90;;;;;;5053050;28;20059;-69
2023/01/15 02:32:59;;;;;;;5.57;2.70;;;4.40;99.90;;;;;;5046691;28;20049;-69
2023/01/15 02:35:34;;;;;;;4.45;2.42;;;4.40;99.90;;;;;;5081328;28;20056;-69
2023/01/15 02:38:08;;;;;;;3.65;2.15;;;4.40;99.90;;;;;;5067864;28;20060;-69
2023/01/15 02:40:39;;;;;;;4.53;2.22;;;4.40;99.90;;;;;;5070025;28;20119;-69
2023/01/15 02:43:09;;;;;;;4.82;2.30;;;4.40;99.90;;;;;;5051418;28;20115;-69
2023/01/15 02:45:42;;;;;;;3.38;2.13;;;4.50;99.90;;;;;;5046907;28;20080;-69
2023/01/15 02:48:16;;;;;;;3.60;2.10;;;4.50;99.90;;;;;;5033313;28;20065;-69
2023/01/15 02:50:49;;;;;;;5.32;2.30;;;4.50;99.90;;;;;;5038343;28;20053;-69
2023/01/15 02:53:23;;;;;;;7.15;2.30;;;4.50;99.90;;;;;;5058578;28;20053;-69
2023/01/15 02:55:55;;;;;;;4.93;2.20;;;4.50;99.90;;;;;;5049599;28;20063;-69
2023/01/15 02:58:36;;;;;;;6.45;2.45;;;4.50;99.90;;;;;;5048969;28;20482;-69
2023/01/15 03:01:11;;;;;;;5.43;2.63;;;4.50;99.90;;;;;;5039619;28;20053;-69
2023/01/15 03:03:49;;;;;;;5.65;2.65;;;4.50;99.90;;;;;;5038867;28;20148;-69
2023/01/15 03:06:27;;;;;;;5.72;2.47;;;4.50;99.90;;;;;;5033004;28;20108;-69
2023/01/15 03:08:55;;;;;;;4.70;2.25;;;4.50;99.90;;;;;;5041458;28;20056;-69
2023/01/15 03:11:22;;;;;;;5.80;2.63;;;4.40;99.90;;;;;;5042988;28;20653;-70
2023/01/15 03:14:05;;;;;;;2.60;2.10;;;4.40;99.90;;;;;;5031125;28;20057;-70
2023/01/15 03:16:35;;;;;;;5.00;2.30;;;4.40;99.90;;;;;;5043481;28;22784;-69
2023/01/15 03:19:13;;;;;;;6.57;2.92;;;4.40;99.90;;;;;;5045045;28;20049;-70
2023/01/15 03:21:48;;;;;;;4.15;2.17;;;4.40;99.90;;;;;;5046440;28;20044;-70
2023/01/15 03:24:24;;;;;;;11.45;2.75;;;4.40;99.90;;;;;;5052011;28;20053;-70
2023/01/15 03:26:52;;;;;;;3.15;1.98;;;4.40;99.90;;;;;;5038403;28;20064;-69
2023/01/15 03:29:23;;;;;;;4.75;2.22;;;4.40;99.90;;;;;;5039217;28;20049;-69
2023/01/15 03:31:53;;;;;;;4.05;2.78;;;4.40;99.90;;;;;;5080956;28;20068;-69
2023/01/15 03:34:20;;;;;;;3.78;2.50;;;4.40;99.90;;;;;;5050811;28;20135;-69
2023/01/15 03:36:49;;;;;;;3.35;2.70;;;4.40;99.90;;;;;;5051656;28;20042;-69
2023/01/15 03:39:18;;;;;;;4.40;2.47;;;4.50;99.90;;;;;;5056153;28;20057;-69
2023/01/15 03:42:15;;;;;;;6.90;3.10;;;4.40;99.90;;;;;;5043666;28;20610;-69
2023/01/15 03:44:57;;;;;;;3.03;2.67;;;4.50;99.90;;;;;;5031878;28;20041;-69
2023/01/15 03:47:41;;;;;;;5.85;3.00;;;4.50;99.90;;;;;;5044900;28;20401;-69
2023/01/15 03:50:22;;;;;;;4.82;3.33;;;4.50;99.90;;;;;;5032210;28;20045;-69
2023/01/15 03:53:06;;;;;;;6.47;3.30;;;4.50;99.90;;;;;;5073570;28;20087;-69
2023/01/15 03:55:43;;;;;;;9.90;4.93;;;4.50;99.90;;;;;;5048422;28;20048;-69
2023/01/15 03:58:18;;;;;;;3.90;3.13;;;4.50;99.90;;;;;;5065901;28;20148;-69
2023/01/15 04:00:52;;;;;;;7.25;3.58;;;4.40;99.90;;;;;;5032498;28;20529;-69
2023/01/15 04:03:24;;;;;;;4.90;2.80;;;4.40;99.90;;;;;;5045954;28;20133;-69
2023/01/15 04:05:55;;;;;;;3.83;3.05;;;4.40;99.90;;;;;;5073345;28;20567;-69
2023/01/15 04:08:23;;;;;;;9.48;3.53;;;4.40;99.90;;;;;;5063018;28;20060;-69
2023/01/15 04:10:55;;;;;;;3.97;3.28;;;4.40;99.90;;;;;;5080123;28;20111;-69
2023/01/15 04:13:26;;;;;;;3.97;2.70;;;4.50;99.90;;;;;;5080958;28;20096;-69
2023/01/15 04:15:56;;;;;;;4.32;3.35;;;4.40;99.90;;;;;;5041839;28;20119;-69
2023/01/15 04:18:25;;;;;;;3.72;2.78;;;4.50;99.90;;;;;;5047681;28;20129;-69
2023/01/15 04:20:53;;;;;;;9.20;3.33;;;4.50;99.90;;;;;;5051507;28;20521;-69
2023/01/15 04:23:20;;;;;;;8.73;3.90;;;4.50;99.90;;;;;;5042439;28;20495;-69
2023/01/15 04:25:48;;;;;;;5.43;3.80;;;4.40;99.90;;;;;;5064329;28;20045;-69
2023/01/15 04:28:15;;;;;;;5.28;3.70;;;4.40;99.90;;;;;;5050883;28;20045;-69
2023/01/15 04:30:43;;;;;;;7.78;4.05;;;4.40;99.90;;;;;;5040186;28;20053;-70
2023/01/15 04:33:11;;;;;;;7.88;4.32;;;4.50;99.90;;;;;;5045594;28;20036;-69
2023/01/15 04:35:39;;;;;;;4.82;3.40;;;4.50;99.90;;;;;;5037174;28;20192;-69
2023/01/15 04:38:06;;;;;;;5.57;3.70;;;4.50;99.90;;;;;;5043381;28;20037;-69
2023/01/15 04:46:03;;;;;;;8.65;4.18;;;4.50;99.90;;;;;;5034795;28;20053;-69
2023/01/15 04:48:32;;;;;;;5.25;4.75;;;4.50;99.90;;;;;;5045721;28;20047;-70
2023/01/15 04:51:03;;;;;;;7.60;4.50;;;4.50;99.90;;;;;;5051220;28;20513;-69
2023/01/15 04:53:31;;;;;;;6.22;4.05;;;4.50;99.90;;;;;;5051556;28;20474;-69
2023/01/15 04:56:01;;;;;;;7.88;5.00;;;4.40;99.90;;;;;;5050409;28;20505;-69
2023/01/15 04:58:29;;;;;;;6.15;4.68;;;4.40;99.90;;;;;;5045857;28;20509;-69
2023/01/15 05:00:59;;;;;;;6.40;4.78;;;4.40;99.90;;;;;;5035701;28;20050;-69
2023/01/15 05:03:27;;;;;;;8.82;4.70;;;4.40;99.90;;;;;;5030085;28;20049;-69
2023/01/15 05:05:55;;;;;;;7.43;5.15;;;4.50;99.90;;;;;;5035345;28;20083;-69
2023/01/15 05:08:23;;;;;;;5.35;4.45;;;4.50;99.90;;;;;;5033527;28;20132;-69
2023/01/15 05:10:50;;;;;;;6.25;4.32;;;4.50;99.90;;;;;;5027772;28;20136;-69
2023/01/15 05:13:17;;;;;;;10.23;5.15;;;4.40;99.90;;;;;;5029683;28;20053;-69
2023/01/15 05:15:45;;;;;;;7.00;4.72;;;4.50;99.90;;;;;;5030825;28;20049;-71
2023/01/15 05:18:13;;;;;;;10.27;5.00;;;4.40;99.90;;;;;;5045322;28;20053;-70
2023/01/15 05:20:41;;;;;;;9.30;5.35;;;4.40;99.90;;;;;;5035257;28;20045;-70
2023/01/15 05:23:16;;;;;;;7.70;5.63;;;4.40;99.90;;;;;;5031130;28;20529;-72
2023/01/15 05:25:43;;;;;;;7.20;5.00;;;4.40;99.90;;;;;;5049674;28;20053;-69
2023/01/15 05:28:11;;;;;;;9.45;5.40;;;4.40;99.90;;;;;;5035368;28;20032;-69
2023/01/15 05:30:38;;;;;;;7.05;5.82;;;4.40;99.90;;;;;;5037440;28;20556;-69
2023/01/15 05:33:05;;;;;;;7.47;5.15;;;4.40;99.90;;;;;;5050898;28;20489;-70
2023/01/15 05:35:32;;;;;;;8.00;5.45;;;4.40;99.90;;;;;;5045498;28;20056;-69
2023/01/15 05:38:00;;;;;;;5.85;4.75;;;4.40;99.90;;;;;;5030155;28;20052;-69
2023/01/15 05:40:28;;;;;;;10.98;5.93;;;4.40;99.90;;;;;;5049346;28;20068;-70
2023/01/15 05:42:56;;;;;;;8.82;6.10;;;4.40;99.90;;;;;;5045556;28;20533;-70
2023/01/15 05:45:23;;;;;;;6.65;5.60;;;4.40;99.90;;;;;;5040641;28;20077;-70
2023/01/15 05:47:52;;;;;;;13.50;6.60;;;4.40;99.90;;;;;;5051540;28;20068;-71
2023/01/15 05:50:20;;;;;;;8.23;5.93;;;4.30;99.90;;;;;;5048736;28;20163;-70
2023/01/15 05:52:47;;;;;;;11.45;6.43;;;4.40;99.90;;;;;;5050660;28;20056;-71
2023/01/15 05:55:14;;;;;;;9.20;6.72;;;4.40;99.90;;;;;;5035629;28;20084;-70
2023/01/15 05:57:43;;;;;;;13.95;7.20;;;4.40;99.90;;;;;;5029577;28;20049;-70
2023/01/15 06:00:12;;;;;;;10.57;6.47;;;4.30;99.90;;;;;;5029217;28;20391;-72
2023/01/15 06:02:42;;;;;;;12.35;7.72;;;4.30;99.90;;;;;;5064568;28;20140;-70
2023/01/15 06:05:10;;;;;;;13.48;7.10;;;4.30;99.90;;;;;;5050274;28;20068;-70
2023/01/15 06:07:37;;;;;;;10.05;6.93;;;4.30;99.90;;;;;;5050235;28;20041;-70
2023/01/15 06:10:06;;;;;;;11.07;7.20;;;4.30;99.90;;;;;;5050258;28;20147;-70
2023/01/15 06:12:34;;;;;;;15.27;7.38;;;4.30;99.90;;;;;;5046162;28;20040;-70
2023/01/15 06:15:02;;;;;;;11.85;7.18;;;4.30;99.90;;;;;;5032215;28;20045;-67
2023/01/15 06:17:31;;;;;;;8.68;6.90;;;4.30;99.90;;;;;;5011490;28;20045;-66
2023/01/15 06:19:58;;;;;;;10.52;7.55;;;4.20;99.90;;;;;;5030350;28;20081;-67
2023/01/15 06:22:26;;;;;;;12.50;7.63;;;4.20;99.90;;;;;;5034189;28;20072;-70
2023/01/15 06:25:02;;;;;;;11.38;8.10;;;4.30;99.90;;;;;;5036222;28;20115;-72
2023/01/15 06:27:30;;;;;;;11.07;8.50;;;4.30;99.90;;;;;;5044566;28;20056;-71
2023/01/15 06:29:58;;;;;;;13.40;8.32;;;4.30;99.90;;;;;;5048732;28;20047;-70
2023/01/15 06:32:27;;;;;;;11.95;9.02;;;4.20;99.90;;;;;;5041255;28;20041;-70
2023/01/15 06:34:54;;;;;;;17.33;9.93;;;4.30;99.90;;;;;;5043370;28;20435;-71
2023/01/15 06:37:21;;;;;;;17.15;10.30;;;4.30;99.90;;;;;;5043114;28;20102;-69
2023/01/15 06:39:49;;;;;;;16.67;10.13;;;4.20;99.90;;;;;;5043754;28;20127;-71
2023/01/15 06:47:49;;;;;;;15.73;9.90;;;4.20;99.90;;;;;;5046348;28;20140;-68
2023/01/15 06:50:17;;;;;;;14.80;9.32;;;4.20;99.90;;;;;;5043031;28;20061;-69
2023/01/15 06:52:44;;;;;;;14.88;9.52;;;4.20;99.90;;;;;;5037258;28;20087;-69
2023/01/15 06:55:12;;;;;;;16.38;9.48;;;4.20;99.90;;;;;;5044485;28;20509;-68
2023/01/15 06:57:43;;;;;;;14.73;9.00;;;4.20;99.90;;;;;;5039600;28;20068;-68
2023/01/15 07:00:12;;;;;;;17.45;9.70;;;4.20;99.90;;;;;;5042487;28;20042;-73
2023/01/15 07:02:41;;;;;;;14.52;8.73;;;4.20;99.90;;;;;;5042424;28;20049;-71
2023/01/15 07:05:10;;;;;;;11.40;8.15;;;4.20;99.90;;;;;;5038349;28;20069;-69
2023/01/15 07:07:42;;;;;;;12.40;8.40;;;4.20;99.90;;;;;;5047428;28;20505;-69
2023/01/15 07:10:11;;;;;;;13.85;9.35;;;4.20;99.90;;;;;;5045738;28;20053;-69
2023/01/15 07:12:40;;;;;;;12.07;7.43;;;4.20;99.90;;;;;;5045847;28;20053;-74
2023/01/15 07:15:08;;;;;;;10.73;7.40;;;4.20;99.90;;;;;;5046751;28;20049;-69
2023/01/15 07:17:36;;;;;;;11.43;7.97;;;4.10;99.90;;;;;;5041697;28;20087;-68
2023/01/15 07:20:05;;;;;;;11.52;7.55;;;4.10;99.90;;;;;;5035330;28;20057;-70
2023/01/15 07:22:34;;;;;;;11.93;7.35;;;4.10;99.90;;;;;;5065419;28;20076;-70
2023/01/15 07:25:01;;;;;;;12.20;7.68;;;4.10;99.90;;;;;;5050059;28;20072;-69
2023/01/15 07:27:30;;;;;;;13.63;7.88;;;4.10;99.90;;;;;;5040570;28;20049;-68
2023/01/15 07:29:57;;;;;;;9.15;7.07;;;4.10;99.90;;;;;;5057840;28;20069;-70
2023/01/15 07:32:25;;;;;;;11.18;7.82;;;4.00;99.90;;;;;;5038234;28;20473;-71
2023/01/15 07:34:52;;;;;;;11.20;7.22;;;4.00;99.90;;;;;;5050877;28;20080;-70
2023/01/15 07:37:19;;;;;;;12.45;7.82;;;4.00;99.90;;;;;;5047477;28;20087;-70
2023/01/15 07:39:48;;;;;;;10.68;7.45;;;4.00;99.90;;;;;;5050202;28;20390;-69
2023/01/15 07:50:30;;;;;;;12.73;7.70;;;3.90;99.90;;;;;;5035152;28;20056;-69
2023/01/15 07:52:57;;;;;;;10.48;7.18;;;4.00;99.90;;;;;;5046002;28;20038;-69
2023/01/15 07:55:26;;;;;;;11.98;7.40;;;4.00;99.90;;;;;;5039297;28;20049;-69
2023/01/15 07:57:53;;;;;;;11.90;7.22;;;4.00;99.90;;;;;;5033561;28;20128;-68
2023/01/15 08:00:23;;;;;;;12.27;7.88;;;3.90;99.90;;;;;;5059206;28;20037;-69
2023/01/15 08:02:53;;;;;;;9.93;7.05;;;3.90;99.90;;;;;;5047806;28;20060;-70
2023/01/15 08:05:20;;;;;;;10.35;7.30;;;3.90;99.90;;;;;;5049780;28;20143;-70
2023/01/15 08:07:48;;;;;;;8.35;6.78;;;3.90;99.90;;;;;;5051605;28;20045;-70
2023/01/15 08:10:16;;;;;;;10.50;6.90;;;4.00;99.90;;;;;;5047403;28;20067;-69
2023/01/15 08:15:37;;;;;;;9.43;6.90;;;3.90;99.90;;;;;;5051757;28;20056;-69
2023/01/15 08:18:05;;;;;;;9.80;6.50;;;3.90;99.90;;;;;;5050076;28;20102;-69
2023/01/15 08:20:35;;;;;;;11.27;6.93;;;3.90;99.90;;;;;;5049544;28;20044;-70
2023/01/15 08:23:03;;;;;;;11.45;7.53;;;3.90;99.90;;;;;;5042795;28;20060;-68
2023/01/15 08:25:30;;;;;;;8.55;6.40;;;3.90;99.90;;;;;;5044796;28;20043;-69
2023/01/15 08:28:03;;;;;;;12.30;7.43;;;3.90;99.90;;;;;;5043071;28;20045;-68
2023/01/15 08:30:30;;;;;;;10.40;7.22;;;3.90;99.90;;;;;;5039933;28;20047;-69
2023/01/15 08:33:01;;;;;;;7.95;5.72;;;3.80;99.90;;;;;;5046864;28;20044;-68
2023/01/15 08:35:29;;;;;;;7.43;5.70;;;3.80;99.90;;;;;;5041072;28;20091;-68
2023/01/15 08:37:56;;;;;;;10.32;6.80;;;3.80;99.90;;;;;;5040286;28;20425;-69
2023/01/15 08:40:24;;;;;;;15.23;6.80;;;3.80;99.90;;;;;;5042711;28;20091;-68
2023/01/15 08:42:51;;;;;;;10.88;6.10;;;3.80;99.90;;;;;;5044160;28;20541;-71
2023/01/15 08:45:20;;;;;;;9.18;6.57;;;3.80;99.90;;;;;;5044521;28;20044;-69
2023/01/15 08:47:48;;;;;;;10.27;6.65;;;3.80;99.90;;;;;;5045469;28;20056;-69
2023/01/15 08:50:15;;;;;;;11.32;7.10;;;3.80;99.90;;;;;;5044547;28;20150;-70
2023/01/15 08:52:43;;;;;;;7.93;6.40;;;3.70;99.90;;;;;;5048081;28;20048;-70
2023/01/15 08:55:10;;;;;;;10.65;7.57;;;3.70;99.90;;;;;;5043330;28;20153;-71
2023/01/15 08:57:38;;;;;;;9.07;6.65;;;3.70;99.90;;;;;;5038259;28;20547;-68
2023/01/15 09:00:08;;;;;;;11.00;7.38;;;3.70;99.90;;;;;;5040007;28;20041;-69
2023/01/15 09:02:37;;;;;;;12.05;7.47;;;3.70;99.90;;;;;;5047413;28;20072;-68
2023/01/15 09:05:06;;;;;;;7.20;5.88;;;3.70;99.90;;;;;;5050311;28;20095;-67
2023/01/15 09:07:34;;;;;;;15.43;7.68;;;3.70;99.90;;;;;;5050261;28;20045;-70
2023/01/15 09:10:01;;;;;;;9.77;6.60;;;3.70;99.90;;;;;;5042233;28;20069;-69
2023/01/15 09:12:29;;;;;;;9.27;6.95;;;3.70;99.90;;;;;;5031301;28;20053;-68
2023/01/15 09:14:57;;;;;;;11.20;6.32;;;3.70;99.90;;;;;;5045313;28;20143;-70
2023/01/15 09:17:24;;;;;;;11.75;6.50;;;3.80;99.90;;;;;;5045040;28;20103;-69
2023/01/15 09:19:53;;;;;;;12.57;8.07;;;3.80;99.90;;;;;;5039830;28;20060;-72
2023/01/15 09:22:21;;;;;;;14.88;8.98;;;3.80;99.90;;;;;;5044480;28;20568;-72
2023/01/15 09:24:48;;;;;;;13.73;9.52;;;3.90;99.90;;;;;;5046619;28;20068;-72
2023/01/15 09:27:16;;;;;;;14.23;8.80;;;3.90;99.90;;;;;;5045099;28;20119;-73
2023/01/15 09:29:43;;;;;;;19.33;9.93;;;3.90;99.90;;;;;;5045277;28;20083;-73
2023/01/15 09:32:11;;;;;;;17.35;9.52;;;3.90;99.90;;;;;;5045125;28;20386;-72
2023/01/15 09:34:38;;;;;;;12.98;8.13;;;3.90;99.90;;;;;;5037086;28;20056;-73
2023/01/15 09:37:07;;;;;;;15.63;8.35;;;3.90;99.90;;;;;;5046181;28;20421;-73
2023/01/15 09:39:34;;;;;;;14.95;7.72;;;3.90;99.90;;;;;;5049020;28;20060;-72
2023/01/15 09:42:17;;;;;;;12.07;7.43;;;3.90;99.90;;;;;;5049006;28;20060;-74
2023/01/15 09:45:04;;;;;;;14.32;9.10;;;3.90;99.90;;;;;;5038849;28;20461;-73
2023/01/15 09:47:38;;;;;;;12.98;8.18;;;3.90;99.90;;;;;;5063933;28;20041;-72
2023/01/15 09:50:30;;;;;;;63.88;30.58;;;3.90;99.90;;;;;;5046961;28;20129;-70
2023/01/15 09:53:21;;;;;;;13.63;8.27;;;3.90;99.90;;;;;;5046555;28;20052;-70
2023/01/15 09:55:50;;;;;;;15.80;8.15;;;3.90;99.90;;;;;;5046882;28;20053;-69
2023/01/15 09:58:21;;;;;;;13.55;8.32;;;3.80;99.90;;;;;;5048967;28;20394;-69
2023/01/15 10:00:51;;;;;;;15.32;8.32;;;3.80;99.90;;;;;;5028640;28;20073;-69
2023/01/15 10:03:30;;;;;;;17.02;7.72;;;3.80;99.90;;;;;;5022409;28;20052;-68
2023/01/15 10:06:10;;;;;;;11.70;7.97;;;3.80;99.90;;;;;;4952236;28;20418;-69
2023/01/15 10:08:42;;;;;;;11.43;7.88;;;3.80;99.90;;;;;;5037143;28;20535;-69
2023/01/15 10:12:34;;;;;;;12.50;7.53;;;3.80;99.90;;;;;;5044450;28;20135;-68
2023/01/15 10:14:39;;;;;;;14.60;9.02;;;3.80;99.90;;;;;;5047293;28;20131;-68
2023/01/15 10:17:22;;;;;;;15.23;9.27;;;3.80;99.90;;;;;;5038650;28;20071;-67
2023/01/15 10:19:51;;;;;;;14.20;8.38;;;3.70;99.90;;;;;;5030112;28;20115;-67
2023/01/15 10:22:36;;;;;;;12.80;8.52;;;3.70;99.90;;;;;;5035361;28;20045;-70
2023/01/15 10:25:15;;;;;;;16.13;8.80;;;3.70;99.90;;;;;;5033537;28;20084;-68
2023/01/15 10:27:48;;;;;;;14.18;8.82;;;3.80;99.90;;;;;;5050440;28;20049;-70
2023/01/15 10:30:17;;;;;;;;;;;3.80;99.90;;;;;;5041114;28;20045;-70
2023/01/15 10:32:49;;;;;;;14.88;9.05;;;3.70;99.90;;;;;;5037600;28;19931;-74
2023/01/15 10:35:39;;;;;;;14.80;9.00;;;3.70;99.90;;;;;;5041211;28;20521;-68
2023/01/15 10:38:17;;;;;;;17.40;9.13;;;3.70;99.90;;;;;;5037408;28;20137;-72
2023/01/15 10:41:14;;;;;;;18.45;7.95;;;3.70;99.90;;;;;;5047986;28;20045;-72
2023/01/15 10:43:51;;;;;;;13.32;7.05;;;3.70;99.90;;;;;;5038657;28;20076;-73
2023/01/15 10:46:25;;;;;;;14.43;8.25;;;3.80;99.90;;;;;;5035006;28;20037;-74
2023/01/15 10:48:57;;;;;;;17.20;8.13;;;3.80;99.90;;;;;;5040478;28;20044;-75
2023/01/15 10:51:30;;;;;;;13.15;7.75;;;3.90;99.90;;;;;;5039038;28;20083;-71
2023/01/15 10:54:03;;;;;;;10.65;6.20;;;4.00;99.90;;;;;;5040081;28;20041;-68
2023/01/15 10:56:39;;;;;;;16.80;9.63;;;4.00;99.90;;;;;;5043433;28;20139;-69
2023/01/15 10:59:16;;;;;;;18.27;8.43;;;4.00;99.90;;;;;;5040998;28;20148;-71
2023/01/15 11:01:44;;;;;;;12.90;7.22;;;4.10;99.90;;;;;;5050171;28;20045;-71
2023/01/15 11:04:12;;;;;;;15.40;8.80;;;4.10;99.90;;;;;;5041763;28;20054;-68
2023/01/15 11:06:41;;;;;;;13.93;7.68;;;4.10;99.90;;;;;;5036420;28;20057;-70
2023/01/15 11:09:21;;;;;;;10.90;7.35;;;4.10;99.90;;;;;;5037699;28;20060;-70
2023/01/15 11:20:37;;;;;;;11.70;7.05;;;4.00;99.90;;;;;;4998552;28;20046;-71
2023/01/15 11:23:10;;;;;;;13.33;7.60;;;3.90;99.90;;;;;;5036786;28;20064;-72
2023/01/15 11:25:43;;;;;;;;;;;3.90;99.90;;;;;;5049089;28;20045;-73
2023/01/15 11:28:14;;;;;;;23.98;8.40;;;3.90;99.90;;;;;;5039142;28;20447;-71
2023/01/15 11:30:43;;;;;;;15.18;8.15;;;3.80;99.90;;;;;;5043092;28;20057;-72
2023/01/15 11:33:24;;;;;;;13.32;7.85;;;3.80;99.90;;;;;;5043704;28;20049;-73
2023/01/15 11:35:57;;;;;;;11.90;7.25;;;3.80;99.90;;;;;;5044601;28;20053;-74
2023/01/15 11:38:27;;;;;;;13.88;8.07;;;3.80;99.90;;;;;;5047184;28;20479;-73
2023/01/15 11:40:58;;;;;;;18.50;8.50;;;3.90;99.90;;;;;;5029941;28;20041;-73
2023/01/15 11:51:58;;;;;;;12.10;7.35;;;3.80;99.90;;;;;;5043345;28;20056;-73
2023/01/15 11:54:27;;;;;;;13.32;7.70;;;3.90;99.90;;;;;;5044163;28;20123;-73
2023/01/15 11:56:55;;;;;;;98.75;43.88;;;3.80;99.90;;;;;;5049831;28;20509;-76
2023/01/15 11:59:25;;;;;;;13.15;7.68;;;3.90;99.90;;;;;;5047926;28;20049;-77
2023/01/15 12:01:58;;;;;;;13.23;7.88;;;3.90;99.90;;;;;;5043503;28;20041;-76
2023/01/15 12:04:35;;;;;;;14.38;7.32;;;3.80;99.90;;;;;;5073864;28;20513;-74
2023/01/15 12:07:06;;;;;;;19.08;8.02;;;3.80;99.90;;;;;;5059218;28;20049;-76
2023/01/15 12:09:59;;;;;;;13.68;8.27;;;3.70;99.90;;;;;;5042399;28;20140;-77
2023/01/15 12:12:32;;;;;;;;;;;3.60;99.90;;;;;;5043311;28;20072;-71
2023/01/15 12:15:24;;;;;;;16.90;8.93;;;3.60;99.90;;;;;;5039114;28;19925;-68
2023/01/15 12:18:36;;;;;;;16.05;8.50;;;3.60;99.90;;;;;;5035128;28;20094;-69
2023/01/15 12:21:05;;;;;;;13.63;7.03;;;3.50;99.90;;;;;;5034658;28;20053;-76
2023/01/15 12:24:00;;;;;;;17.25;8.50;;;3.40;99.90;;;;;;5046583;28;20139;-76
2023/01/15 12:26:31;;;;;;;12.52;7.32;;;3.40;99.90;;;;;;5041557;28;20053;-78
2023/01/15 12:29:06;;;;;;;15.48;8.00;;;3.30;99.90;;;;;;5045185;28;20136;-79
2023/01/15 12:31:40;;;;;;;13.73;7.45;;;3.20;99.90;;;;;;5036922;28;20049;-76
2023/01/15 12:34:18;;;;;;;18.02;8.43;;;3.10;99.90;;;;;;5046104;28;20059;-75
2023/01/15 12:36:50;;;;;;;13.43;7.40;;;3.10;99.90;;;;;;5037598;28;20055;-77
2023/01/15 12:39:23;;;;;;;16.58;8.48;;;3.10;99.90;;;;;;5040977;28;20049;-71
2023/01/15 12:45:07;;;;;;;14.93;7.93;;;3.00;99.90;;;;;;5046640;28;20080;-72
2023/01/15 12:47:44;;;;;;;12.90;7.88;;;3.00;99.90;;;;;;5044764;28;20064;-73
2023/01/15 12:50:35;;;;;;;10.05;5.72;;;3.00;99.90;;;;;;5045505;28;20055;-71
2023/01/15 12:53:13;;;;;;;17.92;8.45;;;3.00;99.90;;;;;;5041276;28;20061;-71
2023/01/15 12:55:47;;;;;;;16.40;7.82;;;2.90;99.90;;;;;;5032654;28;20057;-71
2023/01/15 12:58:33;;;;;;;15.98;7.85;;;2.90;99.90;;;;;;5034761;28;20041;-71
2023/01/15 13:01:12;;;;;;;12.70;8.32;;;2.90;99.90;;;;;;5057926;28;20053;-71
2023/01/15 13:03:54;;;;;;;14.20;8.32;;;2.80;99.90;;;;;;5034893;28;20056;-78
2023/01/15 13:06:27;;;;;;;16.73;8.85;;;2.70;99.90;;;;;;5039435;28;20111;-78
2023/01/15 13:09:04;;;;;;;19.23;9.02;;;2.70;99.90;;;;;;5046259;28;20053;-77
2023/01/15 13:11:33;;;;;;;16.65;8.55;;;2.70;99.90;;;;;;5040686;28;20417;-72
2023/01/15 13:14:01;;;;;;;14.98;8.23;;;2.70;99.90;;;;;;5033987;28;20126;-73
2023/01/15 13:16:41;;;;;;;13.35;8.00;;;2.60;99.90;;;;;;5032568;28;20875;-77
2023/01/15 13:19:34;;;;;;;14.80;7.97;;;2.60;99.90;;;;;;5046706;28;20049;-77
2023/01/15 13:22:10;;;;;;;14.23;8.27;;;2.60;99.90;;;;;;5049007;28;20075;-71
2023/01/15 13:25:05;;;;;;;10.88;6.20;;;2.60;99.90;;;;;;5037306;28;20045;-71
2023/01/15 13:27:54;;;;;;;16.92;8.38;;;2.60;99.90;;;;;;5042653;28;20060;-73
2023/01/15 13:30:47;;;;;;;19.85;8.10;;;2.50;99.90;;;;;;5031395;28;20037;-75
2023/01/15 13:33:26;;;;;;;17.67;9.20;;;2.50;99.90;;;;;;5047233;28;20059;-72
2023/01/15 13:36:04;;;;;;;12.15;6.75;;;2.60;99.90;;;;;;5043152;28;20456;-73
2023/01/15 13:38:38;;;;;;;17.15;8.85;;;2.60;99.90;;;;;;5034766;28;20081;-71
2023/01/15 13:41:08;;;;;;;12.45;7.65;;;2.50;99.90;;;;;;5046523;28;20536;-73
2023/01/15 13:43:39;;;;;;;14.35;7.97;;;2.60;99.90;;;;;;5039399;28;20559;-71
2023/01/15 13:46:12;;;;;;;11.80;6.63;;;2.50;99.90;;;;;;5033380;28;20073;-70
2023/01/15 13:48:44;;;;;;;12.27;7.38;;;2.50;99.90;;;;;;5033380;28;20061;-72
2023/01/15 13:51:28;;;;;;;12.63;7.83;;;2.50;99.90;;;;;;5044379;28;20206;-72
2023/01/15 13:53:58;;;;;;;15.45;7.88;;;2.50;99.90;;;;;;5037540;28;20128;-72
2023/01/15 13:56:29;;;;;;;18.23;8.02;;;2.50;99.90;;;;;;5028176;28;20049;-73
2023/01/15 13:59:00;;;;;;;20.45;7.88;;;2.50;99.90;;;;;;5032085;28;20037;-77
2023/01/15 14:01:34;;;;;;;18.05;8.18;;;2.50;99.90;;;;;;5067944;28;20053;-73
2023/01/15 14:04:05;;;;;;;16.20;10.20;;;2.50;99.90;;;;;;5030968;28;20466;-71
2023/01/15 14:06:42;;;;;;;11.48;7.30;;;2.50;99.90;;;;;;5036386;28;20427;-73